Terminal Aerodrome Forecast
Issued by NWS Twin Cities, MN

Home | Current Version | Previous Version | Graphics & Text | Print | Product List | Glossary On
Versions: 1 2 3 4 5 6 7 8 9 10 11 12 13 14 15
000
FTUS43 KMPX 220500
TAFSTC
TAF
KSTC 220520Z 2206/2306 32004KT P6SM SKC
     FM221800 04007KT P6SM FEW250
     FM230000 08007KT P6SM SCT250
     FM230300 12006KT P6SM BKN250=

USA.gov is the U.S. government's official web portal to all federal, state and local government web resources and services.